M I D A S
Marine Information and Data Acquisition System
Tripno 1118 of the Zeeleeuw from 2006-06-29 07:09:02 to 2006-06-29 13:32:01
Back to CruiseResearch ActivitiesStationsMapUnderway DataData graphs

EquipmentUnitsComment
TimeDGPSUTC
LatitudeDGPSDM.mWGS84
LongitudeDGPSDM.mWGS84
HeadingGyrodeg 
SOGDGPSknotsSpeed over ground
COGDGPSdegCourse over ground
DepthEcho soundermeters200 kHz
Missing or incorrect values are displayed as -999
Navigation data collected by the RV Zeeleeuw from 2006-06-29 07:06:38 to 2006-06-29 13:42:49
                                                                                    Next 1000 lines
Time Latitude Longitude Heading SOG COG Depth
2006-06-29 07:06:48 51°13.603 2°56.095 111.9 0.7 283 5.4
2006-06-29 07:06:54 51°13.603 2°56.092 111.8 1 290 5.2
2006-06-29 07:06:59 51°13.604 2°56.089 112.1 1.4 290 5.2
2006-06-29 07:07:02 51°13.604 2°56.087 112.7 1.6 291 5.5
2006-06-29 07:07:10 51°13.606 2°56.081 113.5 1.8 292 -999
2006-06-29 07:07:14 51°13.607 2°56.078 114.4 2.1 294 -999
2006-06-29 07:07:20 51°13.609 2°56.072 115.3 2.2 294 -999
2006-06-29 07:07:24 51°13.61 2°56.069 116 2.4 297 -999
2006-06-29 07:07:29 51°13.611 2°56.063 116.6 2.6 296 -999
2006-06-29 07:07:34 51°13.613 2°56.058 117 2.7 296 -999
2006-06-29 07:07:39 51°13.615 2°56.052 117.2 2.8 297 -999
2006-06-29 07:07:43 51°13.616 2°56.048 117.3 2.9 297 -999
2006-06-29 07:07:50 51°13.619 2°56.039 117.3 3.1 296 -999
2006-06-29 07:07:54 51°13.62 2°56.034 116.9 3.1 297 -999
2006-06-29 07:07:59 51°13.622 2°56.028 116.6 3.2 296 -999
2006-06-29 07:08:04 51°13.625 2°56.021 116.4 3.3 296 -999
2006-06-29 07:08:10 51°13.627 2°56.013 116.1 3.4 295 -999
2006-06-29 07:08:14 51°13.629 2°56.008 116 3.4 295 -999
2006-06-29 07:08:19 51°13.631 2°56.001 115.9 3.5 294 -999
2006-06-29 07:08:24 51°13.633 2°55.993 115.9 3.5 295 -999
2006-06-29 07:08:30 51°13.635 2°55.984 115.9 3.5 295 -999
2006-06-29 07:08:34 51°13.637 2°55.978 116.1 4 295 -999
2006-06-29 07:08:39 51°13.639 2°55.969 116.7 4.2 295 -999
2006-06-29 07:08:44 51°13.642 2°55.961 117.1 4.4 296 -999
2006-06-29 07:08:49 51°13.645 2°55.951 117.5 4.6 296 -999
2006-06-29 07:08:54 51°13.648 2°55.942 118.1 4.9 296 -999
2006-06-29 07:09:00 51°13.652 2°55.929 118.3 5 296 -999
2006-06-29 07:09:03 51°13.654 2°55.924 118.4 5.2 297 -999
2006-06-29 07:09:09 51°13.658 2°55.911 118.7 5.3 296 -999
2006-06-29 07:09:14 51°13.661 2°55.9 118.8 5.4 297 -999
2006-06-29 07:09:19 51°13.665 2°55.889 118.8 5.5 296 -999
2006-06-29 07:09:24 51°13.668 2°55.879 118.1 5.3 296 -999
2006-06-29 07:09:29 51°13.671 2°55.869 117.1 5 294 -999
2006-06-29 07:09:34 51°13.673 2°55.859 116.4 4.9 294 -999
2006-06-29 07:09:39 51°13.676 2°55.85 115.2 4.7 293 -999
2006-06-29 07:09:43 51°13.678 2°55.842 114.2 4.7 292 -999
2006-06-29 07:09:49 51°13.681 2°55.831 113 4.6 292 -999
2006-06-29 07:09:54 51°13.683 2°55.821 111.6 4.6 292 -999
2006-06-29 07:09:59 51°13.685 2°55.813 110.1 4.2 290 -999
2006-06-29 07:10:04 51°13.687 2°55.804 108.5 4 289 -999
2006-06-29 07:10:10 51°13.689 2°55.795 106.9 3.9 289 -999
2006-06-29 07:10:14 51°13.69 2°55.789 105.6 3.5 285 -999
2006-06-29 07:10:19 51°13.691 2°55.783 103.9 3.1 286 10.2
2006-06-29 07:10:23 51°13.692 2°55.778 102.3 2.7 284 10.6
2006-06-29 07:10:29 51°13.692 2°55.773 100.1 2.2 283 10.8
2006-06-29 07:10:34 51°13.693 2°55.77 97.6 1.9 284 10.8
2006-06-29 07:10:38 51°13.693 2°55.768 94 1.2 284 11
2006-06-29 07:10:42 51°13.694 2°55.766 90.6 0.9 290 10.9
2006-06-29 07:10:49 51°13.694 2°55.764 86.9 0.8 291 11.1
2006-06-29 07:10:54 51°13.695 2°55.764 83 0.5 319 11.3
2006-06-29 07:10:59 51°13.695 2°55.764 78.7 0.4 340 11.4
2006-06-29 07:11:03 51°13.696 2°55.765 74 0.6 24 11.5
2006-06-29 07:11:08 51°13.697 2°55.766 67.7 0.7 28 11.9
2006-06-29 07:11:14 51°13.698 2°55.768 63.4 0.7 28 11.9
2006-06-29 07:11:19 51°13.699 2°55.769 57.8 1 40 11.9
2006-06-29 07:11:23 51°13.7 2°55.77 52.6 1 29 11.9
2006-06-29 07:11:29 51°13.701 2°55.77 48.8 0.8 28 11.7
2006-06-29 07:11:34 51°13.702 2°55.771 45.8 0.6 22 11.7
2006-06-29 07:11:39 51°13.703 2°55.771 42.9 0.4 12 11.8
2006-06-29 07:11:44 51°13.703 2°55.771 40.3 0.2 334 11.8
2006-06-29 07:11:49 51°13.703 2°55.77 37.8 0.2 334 11.8
2006-06-29 07:11:53 51°13.702 2°55.769 35.5 0.7 224 11.8
2006-06-29 07:11:59 51°13.701 2°55.767 33.7 1 219 11.9
2006-06-29 07:12:02 51°13.7 2°55.766 32 1.2 217 12
2006-06-29 07:12:09 51°13.698 2°55.764 30.5 1.2 217 12
2006-06-29 07:12:14 51°13.697 2°55.763 29.5 1 215 -999
2006-06-29 07:12:19 51°13.696 2°55.762 28.8 0.7 218 -999
2006-06-29 07:12:23 51°13.696 2°55.761 27 0.3 249 -999
2006-06-29 07:12:30 51°13.697 2°55.761 24.8 0.3 317 -999
2006-06-29 07:12:34 51°13.697 2°55.761 21.1 0.5 349 -999
2006-06-29 07:12:39 51°13.698 2°55.76 17 0.7 349 -999
2006-06-29 07:12:43 51°13.699 2°55.76 12.5 0.8 352 -999
2006-06-29 07:12:50 51°13.701 2°55.76 8.1 1 350 -999
2006-06-29 07:12:54 51°13.702 2°55.759 3.6 1.2 349 -999
2006-06-29 07:12:59 51°13.704 2°55.758 359.2 1.3 347 4.9
2006-06-29 07:13:03 51°13.706 2°55.758 356 1.4 345 4.9
2006-06-29 07:13:09 51°13.708 2°55.757 351.9 1.5 341 6.8
2006-06-29 07:13:14 51°13.71 2°55.755 348.4 1.6 341 12.8
2006-06-29 07:13:19 51°13.713 2°55.753 344.1 1.9 335 12.4
2006-06-29 07:13:24 51°13.716 2°55.75 339.4 2.2 332 11.8
2006-06-29 07:13:29 51°13.719 2°55.747 333.9 2.2 332 11.6
2006-06-29 07:13:34 51°13.723 2°55.742 329.4 3.4 325 11.2
2006-06-29 07:13:39 51°13.728 2°55.736 326.7 4 324 10.7
2006-06-29 07:13:44 51°13.734 2°55.73 325.3 4 324 10.3
2006-06-29 07:13:49 51°13.739 2°55.723 324.9 4 324 9.8
2006-06-29 07:13:53 51°13.744 2°55.716 324.9 5.7 321 9.6
2006-06-29 07:13:59 51°13.753 2°55.706 324.7 6.2 322 9.3
2006-06-29 07:14:04 51°13.76 2°55.697 324.7 6.4 322 9.4
2006-06-29 07:14:08 51°13.766 2°55.69 325.1 6.9 323 9.6
2006-06-29 07:14:14 51°13.776 2°55.679 326.6 7.1 325 9.7
2006-06-29 07:14:18 51°13.783 2°55.672 328.4 7.3 328 9.8
2006-06-29 07:14:24 51°13.794 2°55.661 329.8 7.5 328 9.9
2006-06-29 07:14:29 51°13.803 2°55.653 330.9 7.6 330 10
2006-06-29 07:14:34 51°13.812 2°55.645 331.9 7.7 330 10
2006-06-29 07:14:39 51°13.822 2°55.637 333.2 7.8 332 10
2006-06-29 07:14:44 51°13.832 2°55.628 334.8 7.9 333 9.9
2006-06-29 07:14:49 51°13.842 2°55.621 336.4 7.9 333 9.9
2006-06-29 07:14:54 51°13.852 2°55.613 337.5 8.1 334 9.9
2006-06-29 07:14:58 51°13.86 2°55.607 337.5 8.2 334 9.7
2006-06-29 07:15:04 51°13.873 2°55.598 338.2 8.2 335 9.8
2006-06-29 07:15:09 51°13.883 2°55.59 339.3 8.3 337 10
2006-06-29 07:15:13 51°13.892 2°55.584 339.5 8.4 336 10.1
2006-06-29 07:15:18 51°13.903 2°55.577 339.6 8.4 337 10.1
2006-06-29 07:15:22 51°13.911 2°55.571 340.1 8.4 337 10.2
2006-06-29 07:15:29 51°13.926 2°55.56 340 8.5 336 10.1
2006-06-29 07:15:34 51°13.937 2°55.553 339.6 8.5 336 10.3
2006-06-29 07:15:39 51°13.948 2°55.545 339.4 8.6 336 10.1
2006-06-29 07:15:44 51°13.959 2°55.537 339.4 8.6 336 10.1
2006-06-29 07:15:49 51°13.97 2°55.53 339.7 8.7 337 10.1
2006-06-29 07:15:54 51°13.981 2°55.522 340.3 8.8 337 10
2006-06-29 07:15:59 51°13.992 2°55.514 340.4 8.8 337 10.1
2006-06-29 07:16:04 51°14.004 2°55.506 339.8 8.9 336 10.1
2006-06-29 07:16:09 51°14.015 2°55.499 340.3 8.9 336 10.1
2006-06-29 07:16:14 51°14.026 2°55.491 340.5 8.9 336 10.1
2006-06-29 07:16:19 51°14.038 2°55.483 339.8 8.9 336 10
2006-06-29 07:16:24 51°14.049 2°55.475 339.6 8.9 336 9.9
2006-06-29 07:16:29 51°14.061 2°55.467 339.8 8.9 336 9.9
2006-06-29 07:16:34 51°14.072 2°55.458 339.6 9 335 10
2006-06-29 07:16:39 51°14.083 2°55.45 338.6 9 335 10
2006-06-29 07:16:44 51°14.095 2°55.442 338.8 9 336 9.9
2006-06-29 07:16:49 51°14.106 2°55.433 338.9 9 335 10
2006-06-29 07:16:54 51°14.117 2°55.425 338.9 9 336 10
2006-06-29 07:16:59 51°14.129 2°55.417 338.9 9 335 9.9
2006-06-29 07:17:03 51°14.138 2°55.41 338.9 9 335 10
2006-06-29 07:17:09 51°14.151 2°55.399 338.1 9 333 10
2006-06-29 07:17:14 51°14.162 2°55.389 336.4 9 331 9.9
2006-06-29 07:17:19 51°14.172 2°55.378 334.2 9 329 9.9
2006-06-29 07:17:24 51°14.183 2°55.367 331.7 9.1 326 9.9
2006-06-29 07:17:28 51°14.192 2°55.357 329.4 9.2 326 9.9
2006-06-29 07:17:34 51°14.204 2°55.342 327.6 9.2 326 9.8
2006-06-29 07:17:38 51°14.213 2°55.331 326 9.9 321 9.9
2006-06-29 07:17:44 51°14.226 2°55.313 324.5 10.2 320 9.8
2006-06-29 07:17:48 51°14.234 2°55.3 322.9 10.2 319 9.8
2006-06-29 07:17:54 51°14.247 2°55.281 321.4 10.2 319 9.8
2006-06-29 07:17:59 51°14.258 2°55.264 319.9 10.8 315 9.7
2006-06-29 07:18:03 51°14.266 2°55.25 318.6 11 314 9.8
2006-06-29 07:18:08 51°14.277 2°55.232 317.3 11.1 314 9.8
2006-06-29 07:18:14 51°14.289 2°55.21 316.4 11.1 314 9.7
2006-06-29 07:18:18 51°14.298 2°55.194 315.2 11.6 311 9.7
2006-06-29 07:18:22 51°14.306 2°55.179 314.6 11.7 313 9.8
2006-06-29 07:18:29 51°14.322 2°55.152 315.6 11.7 313 9.7
2006-06-29 07:18:34 51°14.332 2°55.131 315.2 11.9 310 9.6
2006-06-29 07:18:39 51°14.343 2°55.111 313.4 11.9 309 9.8
2006-06-29 07:18:43 51°14.351 2°55.094 313.1 12.1 310 9.7
2006-06-29 07:18:48 51°14.361 2°55.073 312.6 12.1 310 9.8
2006-06-29 07:18:54 51°14.374 2°55.048 311.8 12.1 310 9.9
2006-06-29 07:18:58 51°14.382 2°55.03 311.5 12.3 306 10
2006-06-29 07:19:02 51°14.39 2°55.012 310.5 12.3 306 10
2006-06-29 07:19:09 51°14.403 2°54.98 309.8 12.3 305 10.1
2006-06-29 07:19:14 51°14.413 2°54.957 308.8 12.5 303 10.1
2006-06-29 07:19:18 51°14.42 2°54.939 308.4 12.6 303 10.9
2006-06-29 07:19:24 51°14.431 2°54.909 308.4 12.6 302 10.4
2006-06-29 07:19:29 51°14.439 2°54.884 306.5 12.8 298 10.4
2006-06-29 07:19:34 51°14.445 2°54.858 304.2 12.8 296 10.1
2006-06-29 07:19:39 51°14.451 2°54.83 299.4 13 289 10.2
2006-06-29 07:19:44 51°14.456 2°54.802 296.8 13.1 287 10
2006-06-29 07:19:49 51°14.46 2°54.774 292.2 13.2 284 9.9
2006-06-29 07:19:54 51°14.462 2°54.745 289.3 13.3 280 10
2006-06-29 07:19:59 51°14.464 2°54.715 285.9 13.4 276 9.9
2006-06-29 07:20:04 51°14.465 2°54.685 283.2 13.4 274 10.1
2006-06-29 07:20:09 51°14.465 2°54.656 279.3 13.5 271 10.1
2006-06-29 07:20:14 51°14.465 2°54.626 275.8 13.6 268 10
2006-06-29 07:20:19 51°14.463 2°54.595 273.1 13.7 267 9.8
2006-06-29 07:20:24 51°14.462 2°54.565 271.3 13.7 266 10
2006-06-29 07:20:29 51°14.46 2°54.535 270.2 13.7 265 10
2006-06-29 07:20:34 51°14.457 2°54.505 268.5 13.8 262 10.3
2006-06-29 07:20:39 51°14.454 2°54.474 265.5 13.8 262 10.1
2006-06-29 07:20:44 51°14.45 2°54.444 265 13.8 260 10.5
2006-06-29 07:20:47 51°14.447 2°54.426 262.8 13.9 257 10.2
2006-06-29 07:20:54 51°14.441 2°54.385 260.9 13.8 256 10.4
2006-06-29 07:20:58 51°14.435 2°54.363 257.3 13.8 250 9.3
2006-06-29 07:21:04 51°14.426 2°54.328 254 13.7 248 8.8
2006-06-29 07:21:08 51°14.42 2°54.306 250.4 13.7 247 8.8
2006-06-29 07:21:14 51°14.41 2°54.274 248.3 13.7 244 8.7
2006-06-29 07:21:19 51°14.401 2°54.248 246.1 13.6 243 8.6
2006-06-29 07:21:24 51°14.392 2°54.221 243.8 13.8 241 8.6
2006-06-29 07:21:26 51°14.389 2°54.21 243.2 13.8 243 8.6
2006-06-29 07:21:34 51°14.374 2°54.168 244.2 13.7 241 8.6
2006-06-29 07:21:39 51°14.365 2°54.141 243.1 13.7 241 8.6
2006-06-29 07:21:44 51°14.354 2°54.114 242.6 13.8 240 8.5
2006-06-29 07:21:49 51°14.345 2°54.088 241.5 13.8 240 8.6
2006-06-29 07:21:54 51°14.335 2°54.062 241.3 13.8 237 8.5
2006-06-29 07:21:59 51°14.325 2°54.036 239.8 13.9 239 8.5
2006-06-29 07:22:04 51°14.315 2°54.009 239.6 13.9 238 8.5
2006-06-29 07:22:09 51°14.304 2°53.984 239.8 13.9 238 8.5
2006-06-29 07:22:14 51°14.294 2°53.958 238.7 14 237 8.5
2006-06-29 07:22:19 51°14.283 2°53.933 238.2 13.9 236 8.5
2006-06-29 07:22:23 51°14.274 2°53.913 236.6 13.9 235 8.5
2006-06-29 07:22:27 51°14.265 2°53.892 235.5 13.9 235 8.5
2006-06-29 07:22:34 51°14.249 2°53.859 235.1 13.9 232 8.5
2006-06-29 07:22:39 51°14.238 2°53.834 233.1 13.9 234 8.5
2006-06-29 07:22:44 51°14.225 2°53.809 233.3 13.9 232 8.4
2006-06-29 07:22:49 51°14.214 2°53.784 232.7 13.9 232 8.5
2006-06-29 07:22:53 51°14.205 2°53.765 233.7 13.9 232 8.4
2006-06-29 07:22:59 51°14.192 2°53.735 233.6 13.9 235 8.5
2006-06-29 07:23:04 51°14.18 2°53.71 234.7 13.9 235 8.5
2006-06-29 07:23:09 51°14.17 2°53.684 234.4 13.9 235 8.5
2006-06-29 07:23:14 51°14.158 2°53.659 237 13.9 234 8.5
2006-06-29 07:23:19 51°14.149 2°53.632 237.1 13.9 239 8.6
2006-06-29 07:23:24 51°14.138 2°53.606 239.7 13.9 240 8.5
2006-06-29 07:23:29 51°14.13 2°53.578 240.5 13.9 240 8.6
2006-06-29 07:23:33 51°14.122 2°53.558 242.9 13.8 240 8.6
2006-06-29 07:23:39 51°14.111 2°53.525 242.7 14 242 8.5
2006-06-29 07:23:43 51°14.104 2°53.503 243.5 14 244 8.6
2006-06-29 07:23:49 51°14.093 2°53.471 243.6 13.9 241 8.6
2006-06-29 07:23:53 51°14.085 2°53.449 242.6 14 241 8.7
2006-06-29 07:23:59 51°14.073 2°53.417 242.1 13.9 240 8.7
2006-06-29 07:24:04 51°14.062 2°53.391 241.6 14 238 8.6
2006-06-29 07:24:09 51°14.054 2°53.364 240.3 14 238 8.8
2006-06-29 07:24:14 51°14.042 2°53.339 241.8 13.9 236 8.7
2006-06-29 07:24:18 51°14.035 2°53.317 239.7 13.9 241 8.8
2006-06-29 07:24:23 51°14.025 2°53.292 240.8 13.9 240 8.7
2006-06-29 07:24:27 51°14.017 2°53.27 239.9 13.9 239 8.8
2006-06-29 07:24:34 51°14.002 2°53.234 239.3 13.9 239 8.8
2006-06-29 07:24:39 51°13.992 2°53.208 239 13.9 240 8.8
2006-06-29 07:24:44 51°13.981 2°53.182 239.5 14 236 8.9
2006-06-29 07:24:48 51°13.973 2°53.161 238.6 13.9 237 8.9
2006-06-29 07:24:54 51°13.96 2°53.13 238.8 13.9 237 8.9
2006-06-29 07:24:59 51°13.95 2°53.104 239.1 13.9 238 8.9
2006-06-29 07:25:04 51°13.939 2°53.078 239.5 13.9 237 8.9
2006-06-29 07:25:09 51°13.929 2°53.051 239.3 13.9 237 8.9
2006-06-29 07:25:14 51°13.919 2°53.025 239.5 13.9 238 9
2006-06-29 07:25:19 51°13.908 2°53 240 13.9 237 9
2006-06-29 07:25:24 51°13.898 2°52.972 238.5 14 238 9
2006-06-29 07:25:29 51°13.888 2°52.947 240 14 238 9
2006-06-29 07:25:33 51°13.88 2°52.925 240 14 239 9.1
2006-06-29 07:25:39 51°13.867 2°52.894 239.8 14 237 9.1
2006-06-29 07:25:43 51°13.859 2°52.873 239.5 13.9 238 9.1
2006-06-29 07:25:49 51°13.847 2°52.842 238.7 14.1 237 9.1
2006-06-29 07:25:53 51°13.838 2°52.821 239.1 14 239 9.1
2006-06-29 07:25:59 51°13.825 2°52.79 239.2 13.9 236 9.1
2006-06-29 07:26:04 51°13.815 2°52.764 238 14 238 9.1
2006-06-29 07:26:09 51°13.803 2°52.74 238.6 14 238 9.1
2006-06-29 07:26:14 51°13.793 2°52.714 236.2 13.9 235 9.2
2006-06-29 07:26:19 51°13.781 2°52.69 235.6 13.9 234 9.1
2006-06-29 07:26:24 51°13.77 2°52.664 235.1 13.9 234 9.1
2006-06-29 07:26:29 51°13.759 2°52.64 235.2 13.9 234 9.1
2006-06-29 07:26:33 51°13.75 2°52.62 235.5 13.9 235 9.1
2006-06-29 07:26:39 51°13.737 2°52.589 235.9 14 235 9.2
2006-06-29 07:26:42 51°13.73 2°52.574 236.8 13.8 237 9.2
2006-06-29 07:26:49 51°13.716 2°52.537 237.5 13.8 236 9.1
2006-06-29 07:26:54 51°13.707 2°52.51 239.5 13.9 239 9.1
2006-06-29 07:26:58 51°13.699 2°52.489 242.9 13.9 240 9.1
2006-06-29 07:27:04 51°13.689 2°52.455 243.3 13.9 243 9.1
2006-06-29 07:27:09 51°13.68 2°52.428 244.6 13.9 242 9.1
2006-06-29 07:27:13 51°13.673 2°52.406 245.6 13.9 245 9.2
2006-06-29 07:27:19 51°13.664 2°52.372 246.7 14 245 9.2
2006-06-29 07:27:23 51°13.657 2°52.35 247.6 14 246 9.2
2006-06-29 07:27:28 51°13.649 2°52.321 249.2 14 248 9.3
2006-06-29 07:27:34 51°13.64 2°52.288 247.9 14 248 9.3
2006-06-29 07:27:38 51°13.633 2°52.265 247.7 14 245 9.3
2006-06-29 07:27:44 51°13.623 2°52.231 247.8 14 245 9.3
2006-06-29 07:27:48 51°13.616 2°52.209 246.8 13.9 245 9.3
2006-06-29 07:27:54 51°13.606 2°52.176 246.5 14 245 9.4
2006-06-29 07:27:59 51°13.597 2°52.148 247.2 14 243 9.3
2006-06-29 07:28:04 51°13.589 2°52.12 246.8 14 245 9.4
2006-06-29 07:28:09 51°13.581 2°52.092 246.5 14 245 9.4
2006-06-29 07:28:14 51°13.572 2°52.064 246.2 14 245 9.4
2006-06-29 07:28:19 51°13.564 2°52.037 246.7 13.9 243 9.4
2006-06-29 07:28:24 51°13.555 2°52.008 246.2 14 244 9.4
2006-06-29 07:28:29 51°13.546 2°51.981 245.6 14 244 9.4
2006-06-29 07:28:34 51°13.537 2°51.954 244.9 14 243 9.5
2006-06-29 07:28:39 51°13.527 2°51.927 244.4 14 241 9.5
2006-06-29 07:28:44 51°13.518 2°51.9 243.1 14 240 9.5
2006-06-29 07:28:49 51°13.508 2°51.874 241.9 14 239 9.5
2006-06-29 07:28:54 51°13.498 2°51.847 240.9 14 239 9.5
2006-06-29 07:28:59 51°13.488 2°51.82 240.9 14 240 9.6
2006-06-29 07:29:03 51°13.479 2°51.799 240.2 14.1 238 9.6
2006-06-29 07:29:09 51°13.467 2°51.768 240.3 13.8 239 9.6
2006-06-29 07:29:14 51°13.457 2°51.742 239.7 14 236 9.5
2006-06-29 07:29:19 51°13.447 2°51.715 239.2 14.1 241 9.5
2006-06-29 07:29:24 51°13.437 2°51.688 240.7 14 238 9.6
2006-06-29 07:29:28 51°13.429 2°51.666 240.4 14 239 9.6
2006-06-29 07:29:34 51°13.419 2°51.634 242.1 14 239 9.6
2006-06-29 07:29:38 51°13.411 2°51.612 243.4 14 242 9.5
2006-06-29 07:29:44 51°13.401 2°51.578 243.7 14 243 9.5
2006-06-29 07:29:48 51°13.393 2°51.556 244.8 14 243 9.6
2006-06-29 07:29:54 51°13.383 2°51.524 244.7 14 244 9.6
2006-06-29 07:29:59 51°13.375 2°51.496 246.1 14 243 9.6
2006-06-29 07:30:04 51°13.366 2°51.467 246 14 245 9.6
2006-06-29 07:30:09 51°13.357 2°51.44 246.7 14 245 9.6
2006-06-29 07:30:14 51°13.349 2°51.413 246.1 13.9 245 9.6
2006-06-29 07:30:19 51°13.339 2°51.386 245.5 13.9 240 9.6
2006-06-29 07:30:24 51°13.33 2°51.358 243.6 14 243 9.6
2006-06-29 07:30:29 51°13.32 2°51.332 242.9 14 243 9.6
2006-06-29 07:30:33 51°13.313 2°51.31 241.9 13.9 242 9.6
2006-06-29 07:30:39 51°13.301 2°51.279 242 13.9 238 9.7
2006-06-29 07:30:43 51°13.293 2°51.257 240.6 14 239 9.7
2006-06-29 07:30:49 51°13.28 2°51.227 239.6 13.9 236 9.7
2006-06-29 07:30:53 51°13.271 2°51.206 237.9 13.9 236 9.7
2006-06-29 07:30:59 51°13.258 2°51.175 237.1 14 237 9.7
2006-06-29 07:31:04 51°13.247 2°51.15 237.7 13.9 236 9.7
2006-06-29 07:31:09 51°13.237 2°51.124 236.8 13.9 236 9.8
2006-06-29 07:31:14 51°13.226 2°51.098 238 14 236 9.7
2006-06-29 07:31:18 51°13.218 2°51.077 238.1 14 239 9.7
2006-06-29 07:31:23 51°13.208 2°51.05 239.4 14 240 9.7
2006-06-29 07:31:27 51°13.201 2°51.029 240.9 13.9 241 9.8
2006-06-29 07:31:34 51°13.187 2°50.991 241.4 13.9 241 9.8
2006-06-29 07:31:39 51°13.178 2°50.964 241.4 14 242 9.8
2006-06-29 07:31:44 51°13.168 2°50.937 242.6 14 241 9.8
2006-06-29 07:31:48 51°13.161 2°50.915 243.2 14 242 9.8
2006-06-29 07:31:54 51°13.15 2°50.883 243.3 13.9 240 9.8
2006-06-29 07:31:59 51°13.14 2°50.856 243.2 14 242 9.9
2006-06-29 07:32:04 51°13.131 2°50.828 243.1 14 241 9.9
2006-06-29 07:32:09 51°13.122 2°50.801 243.4 14 242 9.8
2006-06-29 07:32:14 51°13.113 2°50.774 243.6 14 242 9.8
2006-06-29 07:32:19 51°13.104 2°50.747 243.7 13.9 241 9.9
2006-06-29 07:32:24 51°13.094 2°50.719 243.2 13.9 241 9.9
2006-06-29 07:32:29 51°13.085 2°50.692 243.1 13.9 241 9.9
2006-06-29 07:32:33 51°13.078 2°50.67 243.5 14 241 9.9
2006-06-29 07:32:39 51°13.066 2°50.638 243.4 14 241 9.9
2006-06-29 07:32:43 51°13.059 2°50.616 242.7 14.1 240 9.9
2006-06-29 07:32:49 51°13.047 2°50.584 241.8 14.1 241 9.9
2006-06-29 07:32:53 51°13.039 2°50.563 241.8 14 241 9.9
2006-06-29 07:32:59 51°13.027 2°50.531 240.4 14.1 239 10
2006-06-29 07:33:04 51°13.016 2°50.505 240.2 14 238 10
2006-06-29 07:33:09 51°13.005 2°50.479 238.1 14 238 10
2006-06-29 07:33:14 51°12.994 2°50.454 237.1 14.1 238 9.9
2006-06-29 07:33:18 51°12.986 2°50.433 238.1 13.9 236 9.9
2006-06-29 07:33:22 51°12.977 2°50.413 237.4 14 236 10
2006-06-29 07:33:29 51°12.963 2°50.376 236.8 14 238 10
2006-06-29 07:33:34 51°12.953 2°50.35 238.7 13.9 238 10
2006-06-29 07:33:39 51°12.943 2°50.323 239.5 14 239 9.9
2006-06-29 07:33:44 51°12.933 2°50.296 240.6 14 240 9.9
2006-06-29 07:33:49 51°12.923 2°50.27 241.7 14 240 9.9
2006-06-29 07:33:54 51°12.916 2°50.246 241.6 13.9 241 10
2006-06-29 07:33:59 51°12.906 2°50.22 243.1 13.9 240 10
2006-06-29 07:34:04 51°12.897 2°50.192 242.7 13.9 242 10
2006-06-29 07:34:08 51°12.89 2°50.171 243.7 13.9 241 10.1
2006-06-29 07:34:14 51°12.879 2°50.138 243.1 14 240 10
2006-06-29 07:34:20 51°12.868 2°50.106 244.1 13.8 241 10.1
2006-06-29 07:34:24 51°12.86 2°50.084 243.1 13.9 241 10
2006-06-29 07:34:30 51°12.849 2°50.051 242.4 14 242 10.1
2006-06-29 07:34:35 51°12.839 2°50.024 243 14 242 10.1
2006-06-29 07:34:40 51°12.83 2°49.997 242.4 14 241 10
2006-06-29 07:34:44 51°12.822 2°49.975 242.3 14 241 10.1
2006-06-29 07:34:50 51°12.812 2°49.942 242.6 14 242 10.1
2006-06-29 07:34:54 51°12.804 2°49.921 243.4 14.1 241 10.1
2006-06-29 07:35:00 51°12.793 2°49.888 243.1 14.1 243 10.1
2006-06-29 07:35:04 51°12.785 2°49.866 243.6 14 240 10.1
2006-06-29 07:35:10 51°12.774 2°49.833 243.1 14.1 242 10.2
2006-06-29 07:35:14 51°12.767 2°49.811 243.2 14 242 10.2
2006-06-29 07:35:20 51°12.756 2°49.778 243.4 14.1 242 10.2
2006-06-29 07:35:24 51°12.749 2°49.756 243.5 14 242 10.2
2006-06-29 07:35:30 51°12.738 2°49.724 243.8 14 242 10.1
2006-06-29 07:35:34 51°12.73 2°49.702 243.1 14 241 10.2
2006-06-29 07:35:40 51°12.719 2°49.67 243.2 14 241 10.2
2006-06-29 07:35:44 51°12.711 2°49.648 242.7 14.1 240 10.2
2006-06-29 07:35:50 51°12.7 2°49.615 242.5 14 241 10.3
2006-06-29 07:35:55 51°12.69 2°49.588 242.7 14 241 10.2
2006-06-29 07:36:00 51°12.681 2°49.561 242.3 14.1 241 10.2
2006-06-29 07:36:04 51°12.674 2°49.539 242.9 14.1 242 10.3
2006-06-29 07:36:10 51°12.662 2°49.506 243.5 14 240 10.2
2006-06-29 07:36:14 51°12.655 2°49.483 242.4 14.1 243 10.3
2006-06-29 07:36:20 51°12.644 2°49.451 243.7 14 241 10.3
2006-06-29 07:36:24 51°12.636 2°49.43 243.6 14 241 10.3
2006-06-29 07:36:30 51°12.625 2°49.397 242.7 14 241 10.4
2006-06-29 07:36:34 51°12.617 2°49.376 241.9 14.1 241 10.3
2006-06-29 07:36:40 51°12.606 2°49.344 242.4 13.9 241 10.4
2006-06-29 07:36:44 51°12.598 2°49.322 242.2 13.9 239 10.3
2006-06-29 07:36:50 51°12.586 2°49.29 241.3 14.1 240 10.3
2006-06-29 07:36:54 51°12.578 2°49.269 241 14 239 10.4
2006-06-29 07:37:00 51°12.566 2°49.238 240.7 13.9 238 10.4
2006-06-29 07:37:04 51°12.558 2°49.215 239.7 14 239 10.3
2006-06-29 07:37:08 51°12.55 2°49.194 240.5 14.1 239 10.3
2006-06-29 07:37:14 51°12.539 2°49.161 241.1 14 240 10.4
2006-06-29 07:37:19 51°12.529 2°49.134 242.4 14 241 10.4
2006-06-29 07:37:24 51°12.52 2°49.106 242.7 14.1 242 10.3
2006-06-29 07:37:29 51°12.511 2°49.08 243.3 14 242 10.3
2006-06-29 07:37:34 51°12.501 2°49.053 242.7 14 241 10.3
2006-06-29 07:37:38 51°12.494 2°49.031 242 14.1 241 10.3
2006-06-29 07:37:43 51°12.484 2°49.004 242.9 14 241 10.3
2006-06-29 07:37:49 51°12.472 2°48.972 241.2 14 239 10.3
2006-06-29 07:37:54 51°12.462 2°48.945 240.7 14.1 240 10.3
2006-06-29 07:37:59 51°12.453 2°48.918 240.9 14 240 10.3
2006-06-29 07:38:04 51°12.443 2°48.892 240.9 14 239 10.3
2006-06-29 07:38:10 51°12.431 2°48.86 240.5 14 240 10.3
2006-06-29 07:38:14 51°12.423 2°48.839 240.6 14 239 10.3
2006-06-29 07:38:19 51°12.413 2°48.812 240.2 13.9 240 10.3
2006-06-29 07:38:24 51°12.403 2°48.785 240.1 14.1 237 10.3
2006-06-29 07:38:28 51°12.395 2°48.764 240 14 239 10.3
2006-06-29 07:38:34 51°12.382 2°48.733 239.3 14 237 10.3
2006-06-29 07:38:38 51°12.374 2°48.712 239.1 14.1 239 10.3
2006-06-29 07:38:44 51°12.362 2°48.679 239.3 14.1 239 10.3
2006-06-29 07:38:50 51°12.35 2°48.648 240.5 14 239 10.4
2006-06-29 07:38:54 51°12.342 2°48.626 240.6 14.1 239 10.3
2006-06-29 07:39:00 51°12.331 2°48.594 240.9 14.1 241 10.3
2006-06-29 07:39:04 51°12.324 2°48.572 242.2 13.9 241 10.3
2006-06-29 07:39:09 51°12.314 2°48.545 242 14 240 10.3
2006-06-29 07:39:13 51°12.306 2°48.524 241.3 14.1 240 10.3
2006-06-29 07:39:19 51°12.295 2°48.492 242 13.9 240 10.4
2006-06-29 07:39:24 51°12.285 2°48.464 241.6 14 240 10.4
2006-06-29 07:39:27 51°12.279 2°48.448 241.8 14 241 10.3
2006-06-29 07:39:34 51°12.267 2°48.41 242.9 14 241 10.4
2006-06-29 07:39:40 51°12.255 2°48.378 243.2 14 241 10.3
2006-06-29 07:39:44 51°12.248 2°48.356 242.6 14 241 10.4
2006-06-29 07:39:48 51°12.24 2°48.334 242.8 14 240 10.3
2006-06-29 07:39:53 51°12.231 2°48.307 242 14 240 10.4
2006-06-29 07:39:58 51°12.221 2°48.281 242.1 14 239 10.3
2006-06-29 07:40:04 51°12.21 2°48.248 241.6 14 239 10.3
2006-06-29 07:40:10 51°12.198 2°48.217 241.4 13.9 239 10.4
2006-06-29 07:40:14 51°12.19 2°48.195 241.2 14 239 10.3
2006-06-29 07:40:20 51°12.178 2°48.163 241.2 14 241 10.2
2006-06-29 07:40:24 51°12.171 2°48.141 240.9 14 240 10.3
2006-06-29 07:40:30 51°12.159 2°48.11 240.6 14 240 10.3
2006-06-29 07:40:34 51°12.151 2°48.088 240.3 14.1 240 10.3
2006-06-29 07:40:39 51°12.141 2°48.061 241.3 13.9 239 10.3
2006-06-29 07:40:44 51°12.132 2°48.034 241.3 14.1 241 10.3
2006-06-29 07:40:50 51°12.12 2°48.002 241.6 14.1 241 10.3
2006-06-29 07:40:54 51°12.113 2°47.98 242.3 14 241 10.3
2006-06-29 07:41:00 51°12.102 2°47.947 242.1 14 241 10.3
2006-06-29 07:41:04 51°12.094 2°47.925 242.6 14 242 10.3
2006-06-29 07:41:10 51°12.083 2°47.893 242.6 14 241 10.3
2006-06-29 07:41:14 51°12.075 2°47.871 242.3 14.1 241 10.3
2006-06-29 07:41:20 51°12.064 2°47.839 242.2 14.1 241 10.2
2006-06-29 07:41:24 51°12.056 2°47.817 241.8 14 241 10.3
2006-06-29 07:41:28 51°12.048 2°47.796 241.2 14.2 240 10.2
2006-06-29 07:41:34 51°12.036 2°47.763 240.9 14.2 240 10.2
2006-06-29 07:41:39 51°12.026 2°47.736 240 14.2 239 10.2
2006-06-29 07:41:44 51°12.016 2°47.71 239.5 14.2 240 10.2
2006-06-29 07:41:50 51°12.004 2°47.677 240.8 14.2 241 10.2
2006-06-29 07:41:54 51°11.996 2°47.655 241.1 14.3 240 10.2
2006-06-29 07:41:59 51°11.987 2°47.627 242.1 14.2 243 10.2
2006-06-29 07:42:03 51°11.979 2°47.606 242.9 14.1 240 10.1
2006-06-29 07:42:08 51°11.97 2°47.578 241.6 14.3 242 10.2
2006-06-29 07:42:14 51°11.958 2°47.545 242.3 14.2 241 10.2
2006-06-29 07:42:20 51°11.947 2°47.513 242.4 14.1 241 10.1
2006-06-29 07:42:24 51°11.939 2°47.49 241.3 14.2 240 10.2
2006-06-29 07:42:30 51°11.927 2°47.458 241.6 14.2 239 10.1
2006-06-29 07:42:34 51°11.919 2°47.436 241 14.2 240 10.1
2006-06-29 07:42:38 51°11.912 2°47.415 241.1 14.1 240 10.1
2006-06-29 07:42:44 51°11.899 2°47.382 241 14.1 240 10.1
2006-06-29 07:42:50 51°11.888 2°47.35 239.8 14.3 241 10.1
2006-06-29 07:42:54 51°11.88 2°47.328 240.9 14.3 241 10.1
2006-06-29 07:42:59 51°11.871 2°47.3 242.7 14.1 242 10.1
2006-06-29 07:43:04 51°11.861 2°47.273 242.5 14.1 241 10
2006-06-29 07:43:08 51°11.854 2°47.25 241.7 14.3 241 10
2006-06-29 07:43:14 51°11.842 2°47.218 241.4 14.3 239 10
2006-06-29 07:43:20 51°11.83 2°47.185 241 14.2 241 10
2006-06-29 07:43:23 51°11.825 2°47.168 241.6 14.2 241 9.9
2006-06-29 07:43:30 51°11.811 2°47.129 242 14.3 242 9.8
2006-06-29 07:43:34 51°11.804 2°47.107 243.3 14.3 243 9.9
2006-06-29 07:43:40 51°11.793 2°47.074 243.8 14.1 242 9.9
2006-06-29 07:43:44 51°11.785 2°47.052 242.5 14.2 240 9.9
2006-06-29 07:43:49 51°11.776 2°47.024 242.2 14.2 242 9.8
2006-06-29 07:43:53 51°11.768 2°47.002 242.4 14.1 240 9.9
2006-06-29 07:43:59 51°11.757 2°46.97 242.3 14.1 240 9.8
2006-06-29 07:44:04 51°11.747 2°46.942 241.2 14.3 240 9.8
2006-06-29 07:44:10 51°11.734 2°46.911 241.1 14.2 239 9.7
2006-06-29 07:44:14 51°11.726 2°46.89 240 14.1 237 9.8
2006-06-29 07:44:19 51°11.715 2°46.864 237.9 14 237 9.8
2006-06-29 07:44:23 51°11.706 2°46.843 236.6 14.1 235 9.6
2006-06-29 07:44:28 51°11.695 2°46.817 235.8 14.3 236 9.6
2006-06-29 07:44:34 51°11.682 2°46.786 236.5 14.1 236 9.7
2006-06-29 07:44:39 51°11.672 2°46.76 236.8 14 237 9.6
2006-06-29 07:44:44 51°11.661 2°46.733 237.5 14.2 238 9.5
2006-06-29 07:44:50 51°11.65 2°46.7 238.9 14.3 240 9.5
2006-06-29 07:44:54 51°11.642 2°46.678 241.6 14.1 240 9.5
2006-06-29 07:45:00 51°11.631 2°46.646 241.8 14 240 9.6
2006-06-29 07:45:04 51°11.623 2°46.624 241.4 14.2 241 9.5
2006-06-29 07:45:10 51°11.612 2°46.591 241.7 14.2 242 9.6
2006-06-29 07:45:14 51°11.604 2°46.568 242.6 14.2 242 9.5
2006-06-29 07:45:20 51°11.594 2°46.535 243.3 14.2 243 9.5
2006-06-29 07:45:24 51°11.587 2°46.513 244.1 14.1 244 9.5
2006-06-29 07:45:28 51°11.579 2°46.491 244.1 14.2 242 9.5
2006-06-29 07:45:34 51°11.568 2°46.457 243.8 14.3 244 9.5
2006-06-29 07:45:40 51°11.558 2°46.423 244.5 14.1 243 9.5
2006-06-29 07:45:43 51°11.552 2°46.407 243.9 14.2 243 9.5
2006-06-29 07:45:48 51°11.543 2°46.378 243.3 14.3 244 9.5
2006-06-29 07:45:54 51°11.534 2°46.344 245.7 14.3 245 9.5
2006-06-29 07:46:00 51°11.523 2°46.31 246.7 14.1 245 9.5
2006-06-29 07:46:04 51°11.518 2°46.286 246.7 14.2 248 9.5
2006-06-29 07:46:09 51°11.509 2°46.258 248.4 14.3 245 9.5
2006-06-29 07:46:14 51°11.501 2°46.229 247.6 14.3 245 9.5
2006-06-29 07:46:20 51°11.491 2°46.196 247.6 14.2 244 9.5
2006-06-29 07:46:24 51°11.485 2°46.172 246.6 14.3 245 9.5
2006-06-29 07:46:28 51°11.478 2°46.149 247.5 14.2 247 9.6
2006-06-29 07:46:34 51°11.469 2°46.115 248 14.2 245 9.5
2006-06-29 07:46:39 51°11.461 2°46.086 247.2 14.3 246 9.5
2006-06-29 07:46:44 51°11.453 2°46.056 247.8 14.2 247 9.5
2006-06-29 07:46:50 51°11.443 2°46.023 248.3 14.1 244 9.4
2006-06-29 07:46:53 51°11.438 2°46.005 246.7 14.3 246 9.4
2006-06-29 07:46:59 51°11.428 2°45.971 247.7 14.4 247 9.4
2006-06-29 07:47:04 51°11.421 2°45.942 247.9 14.1 246 9.4
2006-06-29 07:47:10 51°11.41 2°45.909 247 14.1 244 9.4
2006-06-29 07:47:14 51°11.404 2°45.886 246.2 14.2 244 9.4
2006-06-29 07:47:19 51°11.395 2°45.858 245.7 14.2 244 9.4
2006-06-29 07:47:24 51°11.387 2°45.83 245.4 14 245 9.5
2006-06-29 07:47:28 51°11.379 2°45.808 245 14.1 242 9.4
2006-06-29 07:47:34 51°11.37 2°45.774 244.7 14.2 246 9.4
2006-06-29 07:47:39 51°11.361 2°45.746 246 14.1 243 9.4
2006-06-29 07:47:44 51°11.352 2°45.717 245.7 14.1 246 9.4
2006-06-29 07:47:48 51°11.346 2°45.695 246.7 14.1 245 9.4
2006-06-29 07:47:54 51°11.337 2°45.66 247.5 14.1 247 9.4
2006-06-29 07:47:59 51°11.329 2°45.631 247.8 14.2 246 9.4
2006-06-29 07:48:04 51°11.322 2°45.602 248.5 14.1 250 9.4
2006-06-29 07:48:08 51°11.317 2°45.579 250.7 14 250 9.4
2006-06-29 07:48:14 51°11.31 2°45.543 252 14.1 251 9.4
2006-06-29 07:48:20 51°11.302 2°45.508 253.7 14 252 9.4
2006-06-29 07:48:24 51°11.298 2°45.484 254.7 14 253 9.4
2006-06-29 07:48:29 51°11.292 2°45.454 255.4 14.1 253 9.4
2006-06-29 07:48:34 51°11.287 2°45.424 256.1 14.1 254 9.4
2006-06-29 07:48:39 51°11.281 2°45.394 256 14.2 253 9.4
2006-06-29 07:48:44 51°11.276 2°45.364 255.8 14.1 255 9.4
2006-06-29 07:48:50 51°11.269 2°45.328 256.4 14.2 253 9.4
2006-06-29 07:48:54 51°11.265 2°45.304 256 14.2 254 9.5
2006-06-29 07:48:59 51°11.259 2°45.273 256.1 14.2 253 9.5
2006-06-29 07:49:04 51°11.253 2°45.243 255.4 14.4 253 9.5
2006-06-29 07:49:10 51°11.247 2°45.207 256.2 14.2 255 9.6
2006-06-29 07:49:14 51°11.242 2°45.183 255.8 14.3 252 9.5
2006-06-29 07:49:18 51°11.238 2°45.158 255.5 14.3 256 9.6
2006-06-29 07:49:24 51°11.231 2°45.122 257.7 14.2 255 9.6
2006-06-29 07:49:28 51°11.227 2°45.098 255.7 14.2 253 9.7
2006-06-29 07:49:34 51°11.22 2°45.062 255.4 14.3 254 9.6
2006-06-29 07:49:39 51°11.215 2°45.032 256.1 14.2 254 9.7
2006-06-29 07:49:43 51°11.21 2°45.007 256 14.3 253 9.8
2006-06-29 07:49:48 51°11.205 2°44.977 255.5 14.2 254 9.7
2006-06-29 07:49:54 51°11.197 2°44.941 255.7 14.2 254 9.8
2006-06-29 07:50:00 51°11.191 2°44.905 255 14.3 253 9.7
2006-06-29 07:50:04 51°11.186 2°44.881 255.7 14.2 254 9.8
2006-06-29 07:50:09 51°11.18 2°44.851 255.8 14.2 252 9.8
2006-06-29 07:50:13 51°11.175 2°44.827 254.1 14.3 252 9.8
2006-06-29 07:50:19 51°11.168 2°44.791 254.2 14.2 253 9.8
2006-06-29 07:50:24 51°11.162 2°44.761 254.4 14.3 252 9.8
2006-06-29 07:50:29 51°11.156 2°44.731 254 14.3 253 9.8
2006-06-29 07:50:33 51°11.151 2°44.706 254.2 14.4 251 9.8
2006-06-29 07:50:39 51°11.144 2°44.671 254.3 14.2 253 9.8
2006-06-29 07:50:44 51°11.138 2°44.641 254.1 14.3 251 9.8
2006-06-29 07:50:49 51°11.131 2°44.611 253.5 14.3 252 9.8
2006-06-29 07:50:54 51°11.125 2°44.581 253.7 14.2 251 9.8
2006-06-29 07:51:00 51°11.118 2°44.545 253.1 14.3 252 9.8
2006-06-29 07:51:04 51°11.113 2°44.521 253.3 14.4 253 9.8
2006-06-29 07:51:10 51°11.106 2°44.484 254.3 14.3 254 9.8
2006-06-29 07:51:14 51°11.102 2°44.46 255.4 14.2 253 9.9
2006-06-29 07:51:19 51°11.096 2°44.43 255.5 14.3 253 9.9
2006-06-29 07:51:24 51°11.09 2°44.4 255.4 14.3 252 9.8
2006-06-29 07:51:30 51°11.083 2°44.364 255.2 14.3 252 9.9
2006-06-29 07:51:33 51°11.079 2°44.346 254 14.3 251 9.9
2006-06-29 07:51:39 51°11.071 2°44.31 253.3 14.2 251 9.9
2006-06-29 07:51:44 51°11.064 2°44.28 252.8 14.2 250 9.9
2006-06-29 07:51:50 51°11.057 2°44.245 251.6 14.3 251 9.9
2006-06-29 07:51:54 51°11.051 2°44.221 252.2 14.3 251 9.9
2006-06-29 07:51:59 51°11.046 2°44.19 253.1 14.2 253 9.9
2006-06-29 07:52:04 51°11.039 2°44.161 253.6 14.2 252 9.9
2006-06-29 07:52:10 51°11.032 2°44.124 254 14.3 253 9.9
2006-06-29 07:52:14 51°11.028 2°44.1 254.7 14.2 254 10
2006-06-29 07:52:19 51°11.022 2°44.071 255.2 14.3 251 9.9
2006-06-29 07:52:24 51°11.017 2°44.04 254.7 14.3 256 10
2006-06-29 07:52:29 51°11.01 2°44.01 255.3 14.2 251 9.9
2006-06-29 07:52:33 51°11.006 2°43.986 254.7 14.2 255 10
2006-06-29 07:52:39 51°10.998 2°43.95 255 14.3 251 10
2006-06-29 07:52:44 51°10.992 2°43.92 254.7 14.2 255 10
2006-06-29 07:52:49 51°10.986 2°43.891 254.6 14.2 251 10
2006-06-29 07:52:54 51°10.981 2°43.861 254.2 14.2 254 10
2006-06-29 07:52:59 51°10.974 2°43.831 254 14.2 251 10
2006-06-29 07:53:04 51°10.969 2°43.801 254 14.1 254 10
2006-06-29 07:53:10 51°10.961 2°43.765 254.5 14.2 251 10
2006-06-29 07:53:14 51°10.957 2°43.741 253.9 14.2 254 10
2006-06-29 07:53:19 51°10.95 2°43.712 254.3 14.1 251 10
2006-06-29 07:53:24 51°10.944 2°43.682 253.5 14.1 253 10
2006-06-29 07:53:30 51°10.937 2°43.647 253.9 14 252 10
2006-06-29 07:53:33 51°10.934 2°43.629 254.3 14.1 253 10
2006-06-29 07:53:39 51°10.927 2°43.594 253.9 14.1 251 10
2006-06-29 07:53:44 51°10.92 2°43.564 254.4 14.1 252 10
2006-06-29 07:53:50 51°10.913 2°43.529 254.2 14.1 252 10
2006-06-29 07:53:54 51°10.907 2°43.506 253.4 14.1 250 10
2006-06-29 07:53:59 51°10.901 2°43.477 252.2 14 250 10
2006-06-29 07:54:04 51°10.893 2°43.448 250.6 14 248 10
2006-06-29 07:54:10 51°10.885 2°43.413 250.2 14 249 10
2006-06-29 07:54:14 51°10.879 2°43.39 249.7 13.9 248 10
2006-06-29 07:54:19 51°10.871 2°43.362 248.7 14 246 10
2006-06-29 07:54:24 51°10.864 2°43.333 248 14 248 9.9
2006-06-29 07:54:30 51°10.855 2°43.299 248.2 14 248 10
2006-06-29 07:54:34 51°10.849 2°43.276 248.6 14 248 9.9
2006-06-29 07:54:40 51°10.842 2°43.241 249.7 14.1 252 9.9
2006-06-29 07:54:44 51°10.837 2°43.217 252.6 14 253 10
2006-06-29 07:54:48 51°10.832 2°43.194 253.2 14.1 253 9.9
2006-06-29 07:54:54 51°10.826 2°43.158 254 14.1 254 9.9
2006-06-29 07:55:00 51°10.819 2°43.122 256 14 254 9.9
2006-06-29 07:55:04 51°10.814 2°43.099 255.1 14 250 10
2006-06-29 07:55:08 51°10.809 2°43.076 253.6 14 251 10
2006-06-29 07:55:14 51°10.8 2°43.04 251.9 14.1 249 10
2006-06-29 07:55:20 51°10.792 2°43.005 250.6 14.3 251 10
2006-06-29 07:55:24 51°10.786 2°42.982 250.6 14 247 10
2006-06-29 07:55:29 51°10.779 2°42.954 249.2 14 248 10.1
2006-06-29 07:55:33 51°10.772 2°42.931 248.6 14.2 247 9.9
2006-06-29 07:55:39 51°10.763 2°42.896 247.6 14.3 247 10
2006-06-29 07:55:44 51°10.755 2°42.868 248.6 14.1 246 9.9
2006-06-29 07:55:50 51°10.746 2°42.833 247.6 14.1 248 10
2006-06-29 07:55:54 51°10.74 2°42.81 248.1 14.1 247 10
2006-06-29 07:56:00 51°10.731 2°42.775 248.3 14.1 248 9.9
2006-06-29 07:56:04 51°10.725 2°42.752 248.3 14.2 247 9.9
2006-06-29 07:56:08 51°10.72 2°42.729 248.6 14.1 249 9.9
2006-06-29 07:56:14 51°10.711 2°42.694 249.4 14.1 248 9.9
2006-06-29 07:56:19 51°10.705 2°42.665 250.9 14.1 252 9.9
2006-06-29 07:56:24 51°10.698 2°42.636 251.8 14 249 9.9
2006-06-29 07:56:30 51°10.691 2°42.6 252.4 14.1 252 9.9
2006-06-29 07:56:33 51°10.686 2°42.582 252.6 14.2 250 10
2006-06-29 07:56:38 51°10.681 2°42.553 253.2 14 252 9.9
2006-06-29 07:56:44 51°10.673 2°42.518 253.2 14 250 9.9
2006-06-29 07:56:50 51°10.665 2°42.483 252.5 14.1 251 9.9
2006-06-29 07:56:54 51°10.66 2°42.459 252.7 14.1 250 9.9
2006-06-29 07:57:00 51°10.653 2°42.423 251.8 14.2 251 9.9
2006-06-29 07:57:03 51°10.649 2°42.406 252.8 14.1 253 9.9
2006-06-29 07:57:08 51°10.642 2°42.376 253.5 14.2 252 9.9
2006-06-29 07:57:15 51°10.634 2°42.335 253.8 14.1 254 9.9
2006-06-29 07:57:20 51°10.628 2°42.305 253.7 14.1 251 9.9
2006-06-29 07:57:24 51°10.623 2°42.281 253.9 14.1 254 10
2006-06-29 07:57:28 51°10.618 2°42.258 253.2 14.2 249 9.9
2006-06-29 07:57:33 51°10.611 2°42.228 252 14.2 251 10
2006-06-29 07:57:40 51°10.601 2°42.188 251 14.1 247 10
2006-06-29 07:57:44 51°10.595 2°42.165 249.3 14 248 10
2006-06-29 07:57:50 51°10.585 2°42.131 248.6 14.1 245 10
2006-06-29 07:57:54 51°10.58 2°42.108 247.4 14.1 247 10
2006-06-29 07:57:59 51°10.571 2°42.08 247.5 14.2 246 9.9
2006-06-29 07:58:04 51°10.565 2°42.051 248.4 14.1 250 10
2006-06-29 07:58:10 51°10.556 2°42.016 249.1 14.1 247 10
2006-06-29 07:58:14 51°10.55 2°41.993 249 14.1 250 9.9
2006-06-29 07:58:18 51°10.545 2°41.97 250.4 14.1 249 10
2006-06-29 07:58:24 51°10.537 2°41.934 251.2 14.2 251 10
2006-06-29 07:58:30 51°10.53 2°41.898 252.6 14.2 251 10
2006-06-29 07:58:34 51°10.524 2°41.875 253.2 14.1 251 10
2006-06-29 07:58:39 51°10.518 2°41.846 253.2 14.1 252 10
2006-06-29 07:58:43 51°10.513 2°41.822 253.1 14.3 250 9.9
2006-06-29 07:58:50 51°10.505 2°41.779 252.6 14.3 253 10
2006-06-29 07:58:53 51°10.5 2°41.762 253.7 14 251 10
2006-06-29 07:58:58 51°10.494 2°41.733 252.6 14.2 252 10
2006-06-29 07:59:04 51°10.487 2°41.697 252.7 14.2 252 10
2006-06-29 07:59:10 51°10.478 2°41.662 253.5 14.1 250 10
2006-06-29 07:59:13 51°10.475 2°41.644 251.2 14.2 250 10.1
2006-06-29 07:59:18 51°10.468 2°41.614 252.3 14.1 250 10
2006-06-29 07:59:24 51°10.46 2°41.58 251.6 14 248 10
2006-06-29 07:59:30 51°10.452 2°41.545 250.3 14 251 10.1
2006-06-29 07:59:34 51°10.445 2°41.523 250.8 14 247 10.1
2006-06-29 07:59:40 51°10.437 2°41.488 249.3 14.1 249 10
2006-06-29 07:59:44 51°10.431 2°41.465 249.5 14.1 247 10.1
2006-06-29 07:59:49 51°10.423 2°41.436 248.5 14 247 10
2006-06-29 07:59:54 51°10.416 2°41.408 247.8 14 246 10
2006-06-29 07:59:59 51°10.408 2°41.379 247.7 14 247 10.1
2006-06-29 08:00:04 51°10.4 2°41.351 248.4 14.1 248 10
2006-06-29 08:00:09 51°10.394 2°41.322 248.9 14 249 10
2006-06-29 08:00:14 51°10.386 2°41.293 250 14.1 249 10
2006-06-29 08:00:19 51°10.381 2°41.263 251 14 253 10
2006-06-29 08:00:24 51°10.374 2°41.234 252.4 14 249 10
2006-06-29 08:00:29 51°10.368 2°41.205 252.1 14 253 10
2006-06-29 08:00:34 51°10.361 2°41.175 252.5 14.1 250 10
2006-06-29 08:00:39 51°10.354 2°41.147 252.9 14 249 10
2006-06-29 08:00:44 51°10.347 2°41.117 251.6 14 249 10
2006-06-29 08:00:50 51°10.339 2°41.082 250.2 14.1 248 10
2006-06-29 08:00:53 51°10.335 2°41.065 249.8 14.1 249 10
2006-06-29 08:00:58 51°10.327 2°41.036 249.4 14 248 10
2006-06-29 08:01:04 51°10.318 2°41.002 248.9 14.1 248 10
2006-06-29 08:01:10 51°10.31 2°40.967 249.2 14.1 249 10
2006-06-29 08:01:13 51°10.306 2°40.949 250.2 14.1 250 10
2006-06-29 08:01:18 51°10.299 2°40.92 250.5 14.2 250 10
2006-06-29 08:01:24 51°10.291 2°40.885 251.6 14.1 252 10
2006-06-29 08:01:28 51°10.286 2°40.861 252.7 14 251 10.1
2006-06-29 08:01:33 51°10.28 2°40.831 252.8 14.1 252 10
2006-06-29 08:01:38 51°10.274 2°40.802 253.4 14.2 252 10
2006-06-29 08:01:44 51°10.267 2°40.766 253.9 14.2 253 10
2006-06-29 08:01:48 51°10.262 2°40.742 254.7 14.1 252 10
2006-06-29 08:01:53 51°10.256 2°40.713 254.3 14 252 10.1
2006-06-29 08:02:00 51°10.248 2°40.671 253.8 14.1 252 10.1
2006-06-29 08:02:04 51°10.243 2°40.648 253.5 14.1 251 10.1
2006-06-29 08:02:10 51°10.235 2°40.613 253.3 14.1 251 10.1
2006-06-29 08:02:14 51°10.23 2°40.589 252.5 14.1 251 10.1
2006-06-29 08:02:20 51°10.222 2°40.554 252.4 14 251 10.1
2006-06-29 08:02:23 51°10.218 2°40.536 252.5 14 250 10.1
2006-06-29 08:02:28 51°10.212 2°40.507 251.7 14.1 251 10.1
2006-06-29 08:02:33 51°10.205 2°40.478 251.8 14.1 250 10.1
2006-06-29 08:02:38 51°10.199 2°40.449 251.7 14 251 10.1
2006-06-29 08:02:44 51°10.191 2°40.414 252.5 14 250 10.2
2006-06-29 08:02:48 51°10.185 2°40.39 252 14 251 10.2
2006-06-29 08:02:54 51°10.177 2°40.356 251.9 14 250 10.1
2006-06-29 08:02:59 51°10.17 2°40.327 251 14 249 10.2
2006-06-29 08:03:03 51°10.164 2°40.304 250.3 14 248 10.2
2006-06-29 08:03:10 51°10.154 2°40.264 249.2 14 248 10.1
2006-06-29 08:03:13 51°10.149 2°40.246 248.9 14 247 10.2
2006-06-29 08:03:18 51°10.141 2°40.218 247.7 14 247 10.1
2006-06-29 08:03:24 51°10.133 2°40.184 248 14 248 10.1
2006-06-29 08:03:30 51°10.123 2°40.149 248.4 14.1 247 10.1
2006-06-29 08:03:34 51°10.118 2°40.126 247.8 14 248 10.1
2006-06-29 08:03:40 51°10.109 2°40.092 249.2 14 248 10.1
2006-06-29 08:03:44 51°10.104 2°40.069 248.7 14 249 10.1
2006-06-29 08:03:49 51°10.096 2°40.04 249.8 14 248 10.1
2006-06-29 08:03:54 51°10.091 2°40.011 251.6 14 251 10.1
2006-06-29 08:03:59 51°10.085 2°39.981 254 13.9 251 10.1
2006-06-29 08:04:04 51°10.08 2°39.951 254.6 14 254 10.1
2006-06-29 08:04:08 51°10.076 2°39.928 256.7 13.9 254 10.1
2006-06-29 08:04:14 51°10.07 2°39.892 256.8 14 255 10.2
2006-06-29 08:04:20 51°10.065 2°39.856 258.2 13.9 258 10.2
2006-06-29 08:04:24 51°10.061 2°39.832 258.7 14 255 10.2
2006-06-29 08:04:28 51°10.058 2°39.808 258.9 14 258 10.2
2006-06-29 08:04:33 51°10.053 2°39.778 259.2 14 256 10.2
2006-06-29 08:04:40 51°10.047 2°39.736 259.1 14 257 10.2
2006-06-29 08:04:43 51°10.044 2°39.718 258.9 14 256 10.3
2006-06-29 08:04:48 51°10.04 2°39.688 258.5 14.1 256 10.3
2006-06-29 08:04:53 51°10.035 2°39.658 258.3 14 257 10.4
2006-06-29 08:04:58 51°10.03 2°39.628 258.2 14 256 10.3
2006-06-29 08:05:03 51°10.025 2°39.598 258.3 14 257 10.3
2006-06-29 08:05:10 51°10.019 2°39.556 257.7 14.1 255 10.5
2006-06-29 08:05:13 51°10.016 2°39.538 257.7 14 257 10.5
2006-06-29 08:05:18 51°10.01 2°39.508 257.4 14 254 10.5
2006-06-29 08:05:24 51°10.004 2°39.473 256.9 14 255 10.5
2006-06-29 08:05:30 51°9.997 2°39.437 255.8 14 253 10.5
2006-06-29 08:05:33 51°9.994 2°39.419 255.3 14 253 10.6
2006-06-29 08:05:38 51°9.988 2°39.39 254 14 252 10.6
2006-06-29 08:05:44 51°9.98 2°39.355 253.3 14 251 10.6
2006-06-29 08:05:48 51°9.975 2°39.332 253 13.9 252 10.7
2006-06-29 08:05:53 51°9.969 2°39.303 253 14 251 10.7
2006-06-29 08:05:58 51°9.963 2°39.273 253.2 13.9 252 10.8
2006-06-29 08:06:04 51°9.956 2°39.238 254 13.9 252 10.8
2006-06-29 08:06:09 51°9.951 2°39.208 255 13.9 255 10.8
2006-06-29 08:06:14 51°9.946 2°39.179 256.3 13.9 254 10.9
2006-06-29 08:06:20 51°9.941 2°39.143 257.1 14 257 11
2006-06-29 08:06:23 51°9.938 2°39.125 258.4 14 257 11
2006-06-29 08:06:28 51°9.933 2°39.095 259 14 256 11.1
2006-06-29 08:06:33 51°9.929 2°39.065 258.9 14 258 11.1
2006-06-29 08:06:40 51°9.922 2°39.023 259.1 14.1 256 11.2
2006-06-29 08:06:44 51°9.918 2°38.998 259 14 257 11.3
2006-06-29 08:06:48 51°9.915 2°38.974 258.6 14.1 256 11.3
2006-06-29 08:06:54 51°9.909 2°38.938 258.5 14.1 257 11.3
2006-06-29 08:06:59 51°9.905 2°38.908 259 14.1 256 11.3
2006-06-29 08:07:03 51°9.901 2°38.884 258.8 14.1 257 11.4
2006-06-29 08:07:08 51°9.897 2°38.853 259.5 14 256 11.5
2006-06-29 08:07:13 51°9.892 2°38.823 259 14.1 256 11.5
2006-06-29 08:07:19 51°9.886 2°38.787 258.4 14.1 257 11.6
2006-06-29 08:07:24 51°9.881 2°38.757 258.6 14.1 255 11.7
2006-06-29 08:07:27 51°9.878 2°38.739 257.5 14.1 255 11.7
2006-06-29 08:07:34 51°9.87 2°38.697 257.1 14.1 253 11.8
2006-06-29 08:07:38 51°9.866 2°38.673 256 14.1 254 11.8
2006-06-29 08:07:44 51°9.859 2°38.637 255.2 14.1 252 11.8
2006-06-29 08:07:48 51°9.854 2°38.613 255.2 14.1 252 11.9
2006-06-29 08:07:53 51°9.849 2°38.584 254.4 14.1 253 11.9
2006-06-29 08:08:00 51°9.841 2°38.542 254.9 14.1 254 12
2006-06-29 08:08:04 51°9.837 2°38.518 255.3 14.1 253 12
2006-06-29 08:08:10 51°9.831 2°38.482 256.8 14.1 255 12.1
2006-06-29 08:08:14 51°9.827 2°38.457 257.1 14.1 255 12.2
2006-06-29 08:08:19 51°9.822 2°38.427 257.8 14.1 256 12.3
2006-06-29 08:08:23 51°9.819 2°38.403 258.5 14.2 257 12.3
2006-06-29 08:08:28 51°9.815 2°38.372 259.8 14.1 259 12.4
2006-06-29 08:08:33 51°9.81 2°38.342 260.6 14.2 257 12.5
2006-06-29 08:08:40 51°9.805 2°38.299 261.2 14.1 260 12.5
2006-06-29 08:08:44 51°9.802 2°38.274 261.3 14.2 257 12.6
2006-06-29 08:08:48 51°9.8 2°38.25 261.5 14.1 260 12.7
2006-06-29 08:08:53 51°9.795 2°38.219 261.8 14.2 257 12.8
2006-06-29 08:09:00 51°9.79 2°38.176 261.8 14.2 259 12.9
2006-06-29 08:09:03 51°9.788 2°38.158 261.3 14.2 258 12.9
2006-06-29 08:09:08 51°9.784 2°38.127 260.9 14.2 259 13
2006-06-29 08:09:13 51°9.779 2°38.096 260.8 14.2 257 13
2006-06-29 08:09:20 51°9.774 2°38.054 260.1 14.1 258 13.2
2006-06-29 08:09:24 51°9.769 2°38.03 259.5 14.1 256 13.2
2006-06-29 08:09:30 51°9.764 2°37.993 259.1 14.2 257 13.3
2006-06-29 08:09:34 51°9.76 2°37.968 258.8 14.2 256 13.3
2006-06-29 08:09:39 51°9.755 2°37.938 258.2 14.2 255 13.4
2006-06-29 08:09:43 51°9.752 2°37.914 258.1 14.2 257 13.5
2006-06-29 08:09:50 51°9.745 2°37.871 258.3 14.3 257 13.5
2006-06-29 08:09:53 51°9.743 2°37.853 259 14.2 258 13.6
2006-06-29 08:09:58 51°9.738 2°37.822 259.9 14.3 257 13.7
2006-06-29 08:10:03 51°9.735 2°37.791 260.2 14.2 258 13.7
2006-06-29 08:10:10 51°9.729 2°37.748 261.7 14.2 259 13.7
2006-06-29 08:10:13 51°9.728 2°37.729 262.2 14.2 261 13.8
2006-06-29 08:10:18 51°9.724 2°37.698 262.8 14.2 261 14
2006-06-29 08:10:24 51°9.721 2°37.661 263.8 14.2 261 14.2
2006-06-29 08:10:28 51°9.719 2°37.637 264 14.2 262 14.2
2006-06-29 08:10:33 51°9.716 2°37.605 264.8 14.2 262 14.1
2006-06-29 08:10:38 51°9.713 2°37.575 265.3 14.2 261 14.4
2006-06-29 08:10:44 51°9.71 2°37.538 264.6 14.2 261 14.5
2006-06-29 08:10:48 51°9.707 2°37.513 265.3 14.3 260 14.7
2006-06-29 08:10:53 51°9.705 2°37.481 264.6 14.3 263 14.2
2006-06-29 08:11:00 51°9.701 2°37.438 265.6 14.1 261 14.7
2006-06-29 08:11:03 51°9.699 2°37.42 265.1 14.2 261 14.8
2006-06-29 08:11:09 51°9.696 2°37.383 264.7 14.1 262 14.8
2006-06-29 08:11:14 51°9.693 2°37.352 264.1 14.1 260 14.7
2006-06-29 08:11:20 51°9.689 2°37.315 263.4 14.2 261 14.8
2006-06-29 08:11:24 51°9.685 2°37.29 262.6 14.2 258 14.7
2006-06-29 08:11:28 51°9.683 2°37.266 261.7 14.3 260 14.7
2006-06-29 08:11:33 51°9.678 2°37.235 261.6 14.3 258 14.6
2006-06-29 08:11:40 51°9.674 2°37.191 261.4 14.2 261 14.6
2006-06-29 08:11:44 51°9.67 2°37.167 262.1 14.3 259 14.6
2006-06-29 08:11:48 51°9.669 2°37.142 262.1 14.2 262 14.7
2006-06-29 08:11:54 51°9.664 2°37.105 263.4 14.2 259 14.6
2006-06-29 08:11:59 51°9.661 2°37.074 263.1 14.2 262 14.5
2006-06-29 08:12:03 51°9.658 2°37.049 263.5 14.3 259 14.5
2006-06-29 08:12:10 51°9.654 2°37.005 263.3 14.2 262 14.4
2006-06-29 08:12:13 51°9.652 2°36.987 263.4 14.2 260 14.5
2006-06-29 08:12:18 51°9.649 2°36.956 262.8 14.3 261 14.3
2006-06-29 08:12:24 51°9.644 2°36.919 263 14.3 259 14.4
2006-06-29 08:12:30 51°9.64 2°36.881 262.7 14.3 260 14.6
2006-06-29 08:12:34 51°9.637 2°36.857 261.6 14.3 258 14.5
2006-06-29 08:12:40 51°9.633 2°36.819 261.8 14.3 261 14.6
2006-06-29 08:12:44 51°9.63 2°36.795 262 14.3 259 14.6
2006-06-29 08:12:48 51°9.628 2°36.77 262.7 14.3 262 14.7
2006-06-29 08:12:53 51°9.624 2°36.738 263.1 14.4 259 14.6
2006-06-29 08:12:59 51°9.621 2°36.701 263.9 14.2 264 14.6
2006-06-29 08:13:04 51°9.618 2°36.67 264.9 14.2 260 14.8
2006-06-29 08:13:08 51°9.616 2°36.645 264.1 14.3 263 14.8
2006-06-29 08:13:13 51°9.613 2°36.613 264.7 14.3 262 14.6
2006-06-29 08:13:20 51°9.611 2°36.57 266.4 14.2 264 14.5
2006-06-29 08:13:24 51°9.61 2°36.545 267.7 14.2 265 15
2006-06-29 08:13:30 51°9.609 2°36.507 270 14.2 268 15.1
2006-06-29 08:13:34 51°9.609 2°36.483 271.1 14.1 268 15.2
2006-06-29 08:13:40 51°9.608 2°36.445 272.6 14.1 269 14.9
2006-06-29 08:13:44 51°9.609 2°36.42 273.6 14.1 271 15
2006-06-29 08:13:48 51°9.608 2°36.395 274 14.2 269 15
2006-06-29 08:13:53 51°9.609 2°36.364 274 14.2 272 15.5
2006-06-29 08:13:59 51°9.609 2°36.326 274 14.2 269 15.2
2006-06-29 08:14:04 51°9.61 2°36.295 275.3 14.2 273 15.2
2006-06-29 08:14:07 51°9.61 2°36.276 276.3 14.2 272 15.1
2006-06-29 08:14:14 51°9.612 2°36.232 277.2 14.2 275 15.7
2006-06-29 08:14:18 51°9.613 2°36.207 278.1 14.3 273 15.7
2006-06-29 08:14:24 51°9.615 2°36.169 278.6 14.2 275 15.5
2006-06-29 08:14:28 51°9.616 2°36.144 278.9 14.2 274 15.3
2006-06-29 08:14:33 51°9.618 2°36.113 278.5 14.2 275 16
2006-06-29 08:14:39 51°9.62 2°36.075 280.2 14.3 276 15.9
2006-06-29 08:14:44 51°9.623 2°36.045 281.2 14.2 277 15.9
2006-06-29 08:14:50 51°9.627 2°36.007 283.5 14.2 279 16
2006-06-29 08:14:54 51°9.63 2°35.982 283.9 14.3 279 16
2006-06-29 08:14:58 51°9.633 2°35.958 285.2 14.1 283 15.7
2006-06-29 08:15:03 51°9.638 2°35.928 288.5 14.1 285 16.1
2006-06-29 08:15:09 51°9.645 2°35.892 291 14.1 286 16.1
2006-06-29 08:15:14 51°9.65 2°35.863 292.4 14.1 288 16.3
2006-06-29 08:15:20 51°9.658 2°35.828 294.3 14 290 15.9
2006-06-29 08:15:24 51°9.665 2°35.806 295.9 14 290 15.8
2006-06-29 08:15:28 51°9.672 2°35.784 301.4 13.8 299 16.5
2006-06-29 08:15:34 51°9.684 2°35.753 305.9 13.8 299 16.3
2006-06-29 08:15:40 51°9.696 2°35.722 308.7 13.8 303 16.2
2006-06-29 08:15:44 51°9.705 2°35.702 310.9 13.8 303 16.4
2006-06-29 08:15:48 51°9.714 2°35.682 312.6 13.7 306 16.6
2006-06-29 08:15:53 51°9.725 2°35.658 314.2 13.8 306 16.8
2006-06-29 08:16:00 51°9.742 2°35.625 315 13.7 308 16.8
2006-06-29 08:16:03 51°9.749 2°35.612 317.2 13.6 312 17
2006-06-29 08:16:09 51°9.766 2°35.588 322.2 13.4 317 17
2006-06-29 08:16:14 51°9.78 2°35.57 327.6 13.3 320 17
2006-06-29 08:16:19 51°9.795 2°35.552 330.9 13.3 323 17
2006-06-29 08:16:24 51°9.81 2°35.536 333.1 13.3 324 16.9
2006-06-29 08:16:30 51°9.829 2°35.516 334.8 13.3 326 16.9
2006-06-29 08:16:34 51°9.841 2°35.503 335.8 13.2 326 17
2006-06-29 08:16:40 51°9.859 2°35.485 336.9 13.2 328 16.8
2006-06-29 08:16:44 51°9.872 2°35.472 337.5 13.2 329 16.6
2006-06-29 08:16:48 51°9.885 2°35.462 339.1 13.1 332 16.3
2006-06-29 08:16:54 51°9.904 2°35.447 342 13 334 16.1
2006-06-29 08:16:59 51°9.921 2°35.435 344.6 13 335 15.6
2006-06-29 08:17:04 51°9.937 2°35.425 346.8 12.9 338 15.3
2006-06-29 08:17:10 51°9.958 2°35.413 348.6 12.9 340 14.9
2006-06-29 08:17:14 51°9.971 2°35.405 349.8 12.8 340 14.3
2006-06-29 08:17:20 51°9.991 2°35.395 350.4 12.7 343 13.8
2006-06-29 08:17:24 51°10.005 2°35.389 351.4 12.7 343 12.9
2006-06-29 08:17:28 51°10.018 2°35.385 354.7 12.5 348 11.3
2006-06-29 08:17:34 51°10.038 2°35.379 357.9 12.3 350 10.8
2006-06-29 08:17:40 51°10.058 2°35.377 0.5 12.1 353 10.1
2006-06-29 08:17:44 51°10.071 2°35.375 2.4 12.1 354 9.8
2006-06-29 08:17:50 51°10.091 2°35.376 5.2 11.8 2 9.6
2006-06-29 08:17:54 51°10.104 2°35.378 9.9 11.7 5 9.3
2006-06-29 08:18:00 51°10.123 2°35.384 14.5 11.6 11 9.4
2006-06-29 08:18:03 51°10.132 2°35.387 18.1 11.6 12 9.5
2006-06-29 08:18:10 51°10.154 2°35.397 20.7 11.6 16 9.6
2006-06-29 08:18:14 51°10.167 2°35.403 22.7 11.7 16 9.7
2006-06-29 08:18:19 51°10.182 2°35.412 24 11.8 19 9.8
2006-06-29 08:18:23 51°10.194 2°35.418 25.7 11.8 20 9.8
2006-06-29 08:18:28 51°10.21 2°35.429 27.4 11.8 22 9.9
2006-06-29 08:18:34 51°10.227 2°35.441 29 11.8 23 9.9
2006-06-29 08:18:39 51°10.242 2°35.452 30.1 11.8 24 10
2006-06-29 08:18:44 51°10.257 2°35.464 30.7 11.8 25 9.9
2006-06-29 08:18:48 51°10.269 2°35.472 31.3 11.9 25 10
2006-06-29 08:18:54 51°10.287 2°35.486 31.7 11.8 26 10.1
2006-06-29 08:18:59 51°10.302 2°35.497 32 11.9 26 10
2006-06-29 08:19:04 51°10.316 2°35.509 32 11.8 27 9.7
2006-06-29 08:19:10 51°10.334 2°35.524 32.3 11.9 27 9.7
2006-06-29 08:19:14 51°10.345 2°35.533 32.6 11.9 28 9.9
2006-06-29 08:19:20 51°10.363 2°35.547 32.8 11.9 27 9.8
2006-06-29 08:19:24 51°10.375 2°35.557 33 11.9 27 9.6
2006-06-29 08:19:29 51°10.389 2°35.568 32.5 11.9 26 9.6
2006-06-29 08:19:34 51°10.404 2°35.58 32.2 11.9 26 9.6
2006-06-29 08:19:39 51°10.419 2°35.591 31.8 11.9 25 9.3
2006-06-29 08:19:44 51°10.434 2°35.602 31.1 11.9 24 9.2
2006-06-29 08:19:50 51°10.451 2°35.615 30.4 11.8 24 9.2
2006-06-29 08:19:54 51°10.463 2°35.623 30.3 11.8 24 9
2006-06-29 08:20:00 51°10.481 2°35.636 30.3 11.8 25 9
2006-06-29 08:20:03 51°10.49 2°35.643 30.4 11.8 25 9
2006-06-29 08:20:08 51°10.505 2°35.655 31.2 11.8 26 8.8
2006-06-29 08:20:14 51°10.522 2°35.668 31.9 11.8 27 9.1
2006-06-29 08:20:19 51°10.536 2°35.681 32.6 11.8 27 8.9
2006-06-29 08:20:23 51°10.548 2°35.69 33.2 11.8 28 9
2006-06-29 08:20:28 51°10.562 2°35.703 33.6 11.7 28 9.2
2006-06-29 08:20:34 51°10.579 2°35.717 33.9 11.7 29 9.1
2006-06-29 08:20:40 51°10.596 2°35.732 34.1 11.7 28 9
2006-06-29 08:20:44 51°10.608 2°35.742 33.8 11.7 27 8.9
2006-06-29 08:20:48 51°10.62 2°35.751 33.3 11.8 26 8.9
2006-06-29 08:20:54 51°10.637 2°35.765 32.5 11.8 26 9.2
2006-06-29 08:20:59 51°10.652 2°35.775 31.9 11.8 25 9.3
2006-06-29 08:21:04 51°10.666 2°35.786 31.2 11.8 25 9.2
2006-06-29 08:21:10 51°10.684 2°35.799 30.5 11.8 23 9.1
2006-06-29 08:21:14 51°10.696 2°35.807 29.4 11.8 22 9.1
2006-06-29 08:21:19 51°10.712 2°35.816 28.3 11.8 21 8.9
2006-06-29 08:21:24 51°10.727 2°35.825 27.6 11.8 21 9
2006-06-29 08:21:30 51°10.745 2°35.836 27.1 11.8 20 9.2
2006-06-29 08:21:34 51°10.758 2°35.844 26.8 11.8 21 9.2
2006-06-29 08:21:39 51°10.773 2°35.853 26.8 11.8 21 9.3
2006-06-29 08:21:44 51°10.788 2°35.863 27.4 11.8 22 9.3
2006-06-29 08:21:48 51°10.8 2°35.871 28.8 11.8 24 9.2
2006-06-29 08:21:54 51°10.817 2°35.886 30.8 11.8 26 9.2
2006-06-29 08:22:00 51°10.834 2°35.901 33 11.7 28 9.2
2006-06-29 08:22:04 51°10.845 2°35.912 34.5 11.7 30 9.1
2006-06-29 08:22:07 51°10.854 2°35.919 35.8 11.7 30 9.2
2006-06-29 08:22:14 51°10.873 2°35.938 36.4 11.7 31 9.2
2006-06-29 08:22:20 51°10.889 2°35.954 36.9 11.7 31 9.3
2006-06-29 08:22:23 51°10.897 2°35.962 37.2 11.7 32 9.2
2006-06-29 08:22:30 51°10.917 2°35.981 37.3 11.7 32 9.5
2006-06-29 08:22:34 51°10.928 2°35.993 37.5 11.6 33 9.4
2006-06-29 08:22:40 51°10.944 2°36.009 37.7 11.7 32 9.5
2006-06-29 08:22:44 51°10.955 2°36.02 37.8 11.6 32 9.4
2006-06-29 08:22:50 51°10.972 2°36.036 37.7 11.7 31 9.4
2006-06-29 08:22:54 51°10.983 2°36.047 37.4 11.7 31 9.2
2006-06-29 08:23:00 51°11 2°36.063 37 11.7 31 9.4
2006-06-29 08:23:04 51°11.01 2°36.073 36.4 11.7 31 9.6
2006-06-29 08:23:08 51°11.022 2°36.083 36 11.8 29 9.5
2006-06-29 08:23:14 51°11.039 2°36.098 35.4 11.8 29 9.3
2006-06-29 08:23:19 51°11.053 2°36.111 34.8 11.7 29 9.5
2006-06-29 08:23:24 51°11.067 2°36.124 35 11.8 30 9.6
2006-06-29 08:23:30 51°11.084 2°36.14 35.5 11.7 30 9.6
2006-06-29 08:23:34 51°11.095 2°36.151 36 11.7 31 9.6
2006-06-29 08:23:38 51°11.106 2°36.162 37.1 11.6 32 9.6
2006-06-29 08:23:44 51°11.122 2°36.179 37.8 11.6 33 9.3
2006-06-29 08:23:48 51°11.133 2°36.19 38.5 11.7 33 9.4
2006-06-29 08:23:54 51°11.149 2°36.207 38.8 11.7 34 9.7
2006-06-29 08:23:59 51°11.163 2°36.221 39.1 11.7 33 9.9
2006-06-29 08:24:04 51°11.176 2°36.235 38.9 11.7 34 9.5
2006-06-29 08:24:10 51°11.192 2°36.252 38.9 11.6 34 9.6
2006-06-29 08:24:14 51°11.203 2°36.264 39 11.7 33 9.5
2006-06-29 08:24:20 51°11.22 2°36.28 38.5 11.7 33 9.7
2006-06-29 08:24:24 51°11.23 2°36.291 38.3 11.7 32 9.8
2006-06-29 08:24:28 51°11.241 2°36.302 38.1 11.7 32 9.5
2006-06-29 08:24:35 51°11.26 2°36.321 37.8 11.6 32 9.8
2006-06-29 08:24:40 51°11.274 2°36.335 37.8 11.7 32 9.5
2006-06-29 08:24:44 51°11.285 2°36.346 37.7 11.7 33 9.6
2006-06-29 08:24:49 51°11.299 2°36.36 38.2 11.6 33 9.6
2006-06-29 08:24:54 51°11.312 2°36.375 38.5 11.6 34 9.6
2006-06-29 08:24:59 51°11.326 2°36.388 38.9 11.7 33 9.6
2006-06-29 08:25:04 51°11.339 2°36.403 38.7 11.7 33 9.8
2006-06-29 08:25:08 51°11.35 2°36.414 38.4 11.6 32 9.6
2006-06-29 08:25:14 51°11.367 2°36.429 37.9 11.7 31 9.8
2006-06-29 08:25:20 51°11.384 2°36.444 36.6 11.7 30 9.6
2006-06-29 08:25:24 51°11.395 2°36.454 35.5 11.7 28 9.6
2006-06-29 08:25:30 51°11.412 2°36.468 34.4 11.7 28 9.5
2006-06-29 08:25:34 51°11.424 2°36.477 33.6 11.7 26 9.8
2006-06-29 08:25:39 51°11.438 2°36.489 33.1 11.7 27 9.9
2006-06-29 08:25:44 51°11.453 2°36.501 32.8 11.7 27 9.8
2006-06-29 08:25:48 51°11.464 2°36.51 33.3 11.7 28 9.7
2006-06-29 08:25:54 51°11.481 2°36.525 33.6 11.6 28 9.5
2006-06-29 08:25:59 51°11.495 2°36.537 34.6 11.6 29 9.6
2006-06-29 08:26:04 51°11.509 2°36.551 35.5 11.6 31 9.6
2006-06-29 08:26:10 51°11.525 2°36.567 36.6 11.6 32 9.7
2006-06-29 08:26:14 51°11.536 2°36.578 37.5 11.6 32 9.6
2006-06-29 08:26:19 51°11.55 2°36.592 38.2 11.6 33 9.6
2006-06-29 08:26:23 51°11.56 2°36.603 38.9 11.6 34 9.7
2006-06-29 08:26:28 51°11.574 2°36.618 39.3 11.6 33 9.7
2006-06-29 08:26:34 51°11.59 2°36.635 39.4 11.6 33 9.6
2006-06-29 08:26:40 51°11.606 2°36.651 39.1 11.6 33 9.6
2006-06-29 08:26:44 51°11.617 2°36.661 38.4 11.6 32 9.4
2006-06-29 08:26:48 51°11.628 2°36.672 37.6 11.5 31 9.5
2006-06-29 08:26:54 51°11.645 2°36.687 36.8 11.5 29 9.6
2006-06-29 08:27:00 51°11.662 2°36.702 35.5 11.6 29 9.6
2006-06-29 08:27:04 51°11.673 2°36.712 35 11.7 28 9.6
2006-06-29 08:27:10 51°11.69 2°36.727 34.8 11.6 29 9.6
2006-06-29 08:27:14 51°11.702 2°36.737 34.6 11.6 29 9.5
2006-06-29 08:27:20 51°11.718 2°36.752 34.6 11.6 30 9.6
2006-06-29 08:27:23 51°11.727 2°36.759 35.5 11.6 30 9.4
2006-06-29 08:27:30 51°11.746 2°36.778 36.2 11.6 31 9.4
2006-06-29 08:27:34 51°11.757 2°36.79 37.4 11.6 33 9.4
2006-06-29 08:27:39 51°11.77 2°36.804 38.4 11.6 33 9.3
2006-06-29 08:27:43 51°11.781 2°36.815 38.9 11.6 34 9.5
2006-06-29 08:27:48 51°11.794 2°36.829 39.4 11.6 34 9.4
2006-06-29 08:27:54 51°11.81 2°36.847 39.8 11.6 34 9.4
2006-06-29 08:28:00 51°11.826 2°36.863 39.8 11.6 34 9.4
2006-06-29 08:28:04 51°11.837 2°36.874 39.1 11.6 33 9.4
2006-06-29 08:28:10 51°11.853 2°36.891 38.8 11.6 33 9.4
2006-06-29 08:28:14 51°11.864 2°36.902 38.6 11.6 33 9.3
2006-06-29 08:28:19 51°11.877 2°36.915 38.5 11.6 33 9.6
2006-06-29 08:28:23 51°11.888 2°36.927 38.9 11.6 33 9.3
2006-06-29 08:28:30 51°11.907 2°36.947 38.9 11.6 33 9.4
2006-06-29 08:28:34 51°11.918 2°36.958 38.8 11.6 33 9.6
2006-06-29 08:28:40 51°11.934 2°36.974 38.7 11.7 32 9.6
2006-06-29 08:28:43 51°11.942 2°36.983 38.5 11.6 33 9.5
2006-06-29 08:28:48 51°11.956 2°36.996 38.4 11.6 32 9.4
2006-06-29 08:28:54 51°11.972 2°37.013 38.3 11.6 33 9.5
2006-06-29 08:28:59 51°11.985 2°37.026 38.3 11.6 32 9.4
2006-06-29 08:29:03 51°11.996 2°37.038 38.2 11.6 33 9.6
2006-06-29 08:29:08 51°12.01 2°37.051 38.3 11.7 32 9.4
2006-06-29 08:29:14 51°12.027 2°37.068 38.3 11.7 32 9.5
2006-06-29 08:29:20 51°12.043 2°37.084 38.1 11.6 32 9.6
2006-06-29 08:29:24 51°12.054 2°37.095 38.1 11.6 32 9.5
2006-06-29 08:29:30 51°12.07 2°37.111 38 11.6 32 9.5
2006-06-29 08:29:34 51°12.081 2°37.122 37.6 11.6 32 9.6
2006-06-29 08:29:39 51°12.094 2°37.135 37.8 11.6 32 9.4
2006-06-29 08:29:44 51°12.109 2°37.149 37.5 11.6 31 9.6
2006-06-29 08:29:48 51°12.12 2°37.159 36.7 11.7 31 9.7
2006-06-29 08:29:54 51°12.136 2°37.175 36.3 11.6 31 9.6
2006-06-29 08:29:59 51°12.15 2°37.188 36.5 11.6 31 9.6